Time;durP1;ratioP1;P1;durP2;ratioP2;P2;SDS_P1;SDS_P2;PMS_P1;PMS_P2;Temp;Humidity;BMP_temperature;BMP_pressure;BME280_temperature;BME280_humidity;BME280_pressure;Samples;Min_cycle;Max_cycle;Signal;HPM_P1;HPM_P2
2022/02/15 00:00:37;;;;;;;54.35;33.53;;;5.90;99.90;;;;;;6157998;23;20009;-74
2022/02/15 00:03:03;;;;;;;56.30;33.75;;;6.00;99.90;;;;;;6184547;23;20333;-74
2022/02/15 00:05:29;;;;;;;52.67;31.77;;;6.00;99.90;;;;;;6184294;23;20004;-74
2022/02/15 00:07:54;;;;;;;57.70;30.48;;;6.00;99.90;;;;;;6184619;23;20338;-74
2022/02/15 00:10:20;;;;;;;52.28;31.75;;;6.00;99.90;;;;;;6184466;23;20055;-74
2022/02/15 00:12:46;;;;;;;59.17;31.92;;;6.00;99.90;;;;;;6157389;23;20012;-74
2022/02/15 00:15:12;;;;;;;57.40;32.78;;;6.00;99.90;;;;;;6184483;23;20063;-74
2022/02/15 00:17:40;;;;;;;55.83;32.63;;;5.90;99.90;;;;;;6157946;23;20005;-74
2022/02/15 00:20:08;;;;;;;60.55;33.90;;;5.90;99.90;;;;;;6184272;23;20749;-74
2022/02/15 00:22:34;;;;;;;65.15;35.50;;;5.90;99.90;;;;;;6184168;23;19997;-75
2022/02/15 00:25:00;;;;;;;57.67;34.28;;;5.90;99.90;;;;;;6158054;23;20087;-74
2022/02/15 00:27:25;;;;;;;57.95;34.25;;;5.90;99.90;;;;;;6184068;23;19997;-74
2022/02/15 00:29:51;;;;;;;58.63;34.25;;;5.90;99.90;;;;;;6184192;23;20008;-74
2022/02/15 00:32:17;;;;;;;58.50;34.05;;;5.90;99.90;;;;;;6184322;23;20008;-74
2022/02/15 00:34:43;;;;;;;59.22;34.83;;;5.90;99.90;;;;;;6184173;23;20433;-74
2022/02/15 00:37:09;;;;;;;55.63;32.58;;;5.90;99.90;;;;;;6157702;23;20005;-75
2022/02/15 00:39:35;;;;;;;58.88;33.20;;;5.90;99.90;;;;;;6184202;23;20072;-75
2022/02/15 00:42:00;;;;;;;56.25;34.28;;;5.90;99.90;;;;;;6183891;23;20008;-75
2022/02/15 00:44:31;;;;;;;57.45;32.97;;;5.90;99.90;;;;;;6183877;23;20110;-75
2022/02/15 00:46:58;;;;;;;57.90;34.30;;;5.90;99.90;;;;;;6157810;23;20004;-75
2022/02/15 00:49:24;;;;;;;57.97;33.58;;;5.90;99.90;;;;;;6183992;23;20384;-75
2022/02/15 00:51:50;;;;;;;56.20;33.95;;;5.90;99.90;;;;;;6157587;23;20033;-75
2022/02/15 00:54:16;;;;;;;59.60;33.88;;;5.90;99.90;;;;;;6183955;23;20445;-75
2022/02/15 00:56:42;;;;;;;59.22;34.13;;;5.90;99.90;;;;;;6184088;23;20004;-75
2022/02/15 00:59:09;;;;;;;57.40;33.90;;;5.90;99.90;;;;;;6183890;23;20012;-75
2022/02/15 01:01:36;;;;;;;57.08;34.45;;;5.90;99.90;;;;;;6183371;23;20448;-75
2022/02/15 01:04:03;;;;;;;55.72;33.78;;;6.00;99.90;;;;;;6157532;23;20004;-75
2022/02/15 01:06:29;;;;;;;53.47;31.25;;;6.00;99.90;;;;;;6157695;23;20001;-75
2022/02/15 01:08:55;;;;;;;60.47;34.05;;;5.90;99.90;;;;;;6183633;23;20008;-75
2022/02/15 01:11:21;;;;;;;55.83;33.47;;;5.90;99.90;;;;;;6183806;23;20001;-75
2022/02/15 01:13:46;;;;;;;53.47;32.20;;;5.90;99.90;;;;;;6183823;23;20013;-75
2022/02/15 01:16:12;;;;;;;54.80;32.80;;;5.90;99.90;;;;;;6183766;23;20146;-75
2022/02/15 01:18:38;;;;;;;57.47;34.03;;;5.90;99.90;;;;;;6183855;23;20529;-75
2022/02/15 01:21:04;;;;;;;60.75;33.83;;;5.90;99.90;;;;;;6183523;23;20005;-75
2022/02/15 01:23:30;;;;;;;58.55;34.42;;;5.90;99.90;;;;;;6157224;23;20422;-75
2022/02/15 01:25:56;;;;;;;55.13;34.28;;;5.90;99.90;;;;;;6157428;23;20001;-75
2022/02/15 01:28:21;;;;;;;61.33;34.75;;;5.80;99.90;;;;;;6183807;23;20010;-75
2022/02/15 01:30:47;;;;;;;64.65;37.58;;;5.80;99.90;;;;;;6183385;23;20083;-75
2022/02/15 01:33:13;;;;;;;59.65;36.38;;;5.90;99.90;;;;;;6183796;23;20001;-75
2022/02/15 01:35:39;;;;;;;53.55;34.95;;;5.90;99.90;;;;;;6183590;23;20005;-75
2022/02/15 01:38:05;;;;;;;56.75;33.47;;;5.90;99.90;;;;;;6183564;23;20032;-75
2022/02/15 01:40:31;;;;;;;57.70;33.95;;;5.90;99.90;;;;;;6157232;23;20012;-75
2022/02/15 01:42:58;;;;;;;58.33;34.55;;;5.90;99.90;;;;;;6183129;23;20330;-75
2022/02/15 01:45:23;;;;;;;65.50;35.95;;;5.90;99.90;;;;;;6183514;23;20001;-75
2022/02/15 01:47:49;;;;;;;57.95;35.22;;;5.90;99.90;;;;;;6183708;23;20008;-75
2022/02/15 01:50:16;;;;;;;60.33;35.88;;;5.90;99.90;;;;;;6183462;23;20005;-75
2022/02/15 01:52:43;;;;;;;58.28;35.03;;;5.90;99.90;;;;;;6156661;23;20009;-75
2022/02/15 01:55:12;;;;;;;57.28;34.35;;;5.90;99.90;;;;;;6157249;23;20032;-75
2022/02/15 01:57:38;;;;;;;56.60;36.28;;;5.90;99.90;;;;;;6183639;23;20373;-75
2022/02/15 02:00:10;;;;;;;54.10;34.85;;;5.70;99.90;;;;;;6157120;23;20032;-75
2022/02/15 02:02:36;;;;;;;63.80;37.63;;;5.60;99.90;;;;;;6156509;23;20025;-75
2022/02/15 02:07:47;;;;;;;58.78;35.42;;;5.60;99.90;;;;;;6183389;23;20106;-76
2022/02/15 02:10:12;;;;;;;60.33;36.15;;;5.60;99.90;;;;;;6183662;23;20017;-76
2022/02/15 02:12:38;;;;;;;59.47;36.30;;;5.60;99.90;;;;;;6156900;23;20004;-76
2022/02/15 02:15:30;;;;;;;58.45;35.58;;;5.70;99.90;;;;;;6157034;23;20001;-76
2022/02/15 02:17:58;;;;;;;58.40;34.50;;;5.60;99.90;;;;;;6176698;23;20353;-77
2022/02/15 02:20:24;;;;;;;61.08;35.30;;;5.70;99.90;;;;;;6182984;23;20315;-76
2022/02/15 02:22:50;;;;;;;61.63;36.03;;;5.70;99.90;;;;;;6183376;23;20001;-76
2022/02/15 02:25:20;;;;;;;61.83;36.70;;;5.70;99.90;;;;;;6156980;23;20040;-77
2022/02/15 02:27:46;;;;;;;57.70;35.25;;;5.70;99.90;;;;;;6183364;23;20079;-76
2022/02/15 02:30:12;;;;;;;59.25;34.95;;;5.80;99.90;;;;;;6156936;23;20009;-77
2022/02/15 02:32:38;;;;;;;63.95;36.08;;;5.70;99.90;;;;;;6156878;23;20015;-76
2022/02/15 02:35:05;;;;;;;61.55;38.30;;;5.70;99.90;;;;;;6183295;23;20001;-77
2022/02/15 02:37:35;;;;;;;63.40;36.47;;;5.70;99.90;;;;;;6183255;23;20004;-76
2022/02/15 02:40:02;;;;;;;59.92;35.33;;;5.70;99.90;;;;;;6156873;23;20043;-77
2022/02/15 02:42:30;;;;;;;63.65;36.65;;;5.70;99.90;;;;;;6183272;23;20004;-77
2022/02/15 02:45:01;;;;;;;60.05;37.28;;;5.70;99.90;;;;;;6183311;23;20043;-77
2022/02/15 02:47:27;;;;;;;65.40;37.90;;;5.70;99.90;;;;;;6183532;23;20080;-76
2022/02/15 02:49:53;;;;;;;61.33;36.35;;;5.70;99.90;;;;;;6156936;23;20512;-76
2022/02/15 02:52:20;;;;;;;67.18;38.88;;;5.80;99.90;;;;;;6183001;23;20101;-76
2022/02/15 02:54:46;;;;;;;65.05;36.92;;;5.80;99.90;;;;;;6183384;23;20342;-76
2022/02/15 02:57:15;;;;;;;65.65;38.40;;;5.80;99.90;;;;;;6183182;23;19997;-77
2022/02/15 02:59:43;;;;;;;64.65;36.67;;;5.80;99.90;;;;;;6156707;23;20044;-77
2022/02/15 03:02:10;;;;;;;62.55;36.47;;;5.80;99.90;;;;;;6182897;23;20001;-77
2022/02/15 03:04:38;;;;;;;57.90;35.88;;;5.80;99.90;;;;;;6183141;23;20001;-76
2022/02/15 03:07:05;;;;;;;63.40;37.70;;;5.80;99.90;;;;;;6156951;23;20318;-77
2022/02/15 03:09:31;;;;;;;68.15;39.33;;;5.80;99.90;;;;;;6183145;23;20001;-77
2022/02/15 03:11:57;;;;;;;61.83;37.53;;;5.70;99.90;;;;;;6156510;23;20009;-77
2022/02/15 03:14:23;;;;;;;60.15;36.70;;;5.60;99.90;;;;;;6185238;23;20005;-76
2022/02/15 03:16:49;;;;;;;61.08;36.28;;;5.50;99.90;;;;;;6185396;23;20108;-76
2022/02/15 03:19:15;;;;;;;65.85;39.40;;;5.50;99.90;;;;;;6185193;23;20433;-77
2022/02/15 03:21:40;;;;;;;70.38;41.28;;;5.50;99.90;;;;;;6185008;23;20005;-77
2022/02/15 03:24:06;;;;;;;62.30;39.60;;;5.60;99.90;;;;;;6185121;23;20028;-77
2022/02/15 03:26:32;;;;;;;63.20;37.20;;;5.60;99.90;;;;;;6184882;23;20426;-77
2022/02/15 03:28:58;;;;;;;66.03;38.45;;;5.60;99.90;;;;;;6185158;23;20001;-77
2022/02/15 03:31:24;;;;;;;66.95;38.72;;;5.60;99.90;;;;;;6158459;23;20371;-76
2022/02/15 03:33:50;;;;;;;66.40;38.95;;;5.60;99.90;;;;;;6158524;23;20005;-77
2022/02/15 03:36:16;;;;;;;61.55;38.58;;;5.70;99.90;;;;;;6185016;23;20009;-77
2022/02/15 03:38:42;;;;;;;63.97;37.17;;;5.70;99.90;;;;;;6158373;23;20556;-77
2022/02/15 03:43:54;;;;;;;60.30;37.00;;;5.60;99.90;;;;;;6184777;23;20132;-77
2022/02/15 03:46:21;;;;;;;57.25;35.55;;;5.70;99.90;;;;;;6158600;23;20011;-77
2022/02/15 03:48:47;;;;;;;57.40;36.25;;;5.70;99.90;;;;;;6158277;23;20008;-77
2022/02/15 03:51:13;;;;;;;59.88;36.47;;;5.70;99.90;;;;;;6157952;23;20024;-77
2022/02/15 03:53:39;;;;;;;61.80;37.47;;;5.70;99.90;;;;;;6184822;23;20080;-77
2022/02/15 03:56:05;;;;;;;60.85;36.40;;;5.70;99.90;;;;;;6184674;23;20079;-78
2022/02/15 03:58:31;;;;;;;63.72;38.25;;;5.70;99.90;;;;;;6158320;23;20337;-77
2022/02/15 04:00:57;;;;;;;61.10;38.10;;;5.70;99.90;;;;;;6158169;23;20008;-78
2022/02/15 04:03:22;;;;;;;62.38;35.80;;;5.70;99.90;;;;;;6184817;23;20001;-77
2022/02/15 04:05:48;;;;;;;64.47;38.15;;;5.70;99.90;;;;;;6158250;23;20008;-78
2022/02/15 04:08:14;;;;;;;64.15;38.95;;;5.70;99.90;;;;;;6184687;23;20033;-77
2022/02/15 04:10:39;;;;;;;59.78;38.10;;;5.70;99.90;;;;;;6184444;23;20366;-78
2022/02/15 04:13:05;;;;;;;64.10;36.00;;;5.70;99.90;;;;;;6184570;23;20005;-78
2022/02/15 04:15:31;;;;;;;55.65;37.40;;;5.70;99.90;;;;;;6158132;23;20105;-77
2022/02/15 04:17:56;;;;;;;57.67;36.10;;;5.70;99.90;;;;;;6184498;23;20033;-77
2022/02/15 04:20:22;;;;;;;55.50;33.78;;;5.70;99.90;;;;;;6157961;23;20075;-78
2022/02/15 04:22:48;;;;;;;61.67;35.78;;;5.60;99.90;;;;;;6158104;23;20001;-77
2022/02/15 04:25:14;;;;;;;58.72;36.85;;;5.60;99.90;;;;;;6157504;23;20005;-78
2022/02/15 04:27:40;;;;;;;60.47;36.60;;;5.60;99.90;;;;;;6158493;23;20001;-77
2022/02/15 04:30:07;;;;;;;61.58;37.08;;;5.50;99.90;;;;;;6185921;23;19997;-78
2022/02/15 04:32:33;;;;;;;67.00;39.75;;;5.60;99.90;;;;;;6185688;23;20024;-78
2022/02/15 04:34:58;;;;;;;59.83;37.03;;;5.60;99.90;;;;;;6185804;23;20084;-78
2022/02/15 04:37:24;;;;;;;58.97;37.55;;;5.60;99.90;;;;;;6185920;23;20005;-78
2022/02/15 04:39:51;;;;;;;61.65;36.40;;;5.60;99.90;;;;;;6158940;23;20005;-77
2022/02/15 04:42:17;;;;;;;63.75;39.67;;;5.60;99.90;;;;;;6184564;23;20380;-77
2022/02/15 04:44:43;;;;;;;62.22;38.00;;;5.60;99.90;;;;;;6136097;23;20028;-78
2022/02/15 04:47:09;;;;;;;63.65;38.03;;;5.60;99.90;;;;;;6128550;23;20084;-78
2022/02/15 04:49:35;;;;;;;60.97;37.13;;;5.60;99.90;;;;;;6154659;23;20005;-78
2022/02/15 04:52:01;;;;;;;62.17;39.42;;;5.60;99.90;;;;;;6154618;23;20009;-78
2022/02/15 04:54:27;;;;;;;62.10;39.75;;;5.70;99.90;;;;;;6154510;23;20029;-78
2022/02/15 04:56:53;;;;;;;65.45;38.47;;;5.60;99.90;;;;;;6154558;23;20009;-78
2022/02/15 04:59:20;;;;;;;60.60;38.20;;;5.70;99.90;;;;;;6128529;23;20013;-78
2022/02/15 05:01:47;;;;;;;60.22;34.80;;;5.70;99.90;;;;;;6154220;23;20013;-78
2022/02/15 05:07:01;;;;;;;58.40;35.78;;;5.70;99.90;;;;;;6154413;23;20079;-78
2022/02/15 05:09:28;;;;;;;55.03;34.88;;;5.70;99.90;;;;;;6154085;23;20001;-78
2022/02/15 05:11:54;;;;;;;59.33;36.35;;;5.70;99.90;;;;;;6128120;23;20005;-78
2022/02/15 05:14:20;;;;;;;62.83;37.00;;;5.70;99.90;;;;;;6154203;23;20005;-78
2022/02/15 05:16:46;;;;;;;62.00;38.35;;;5.70;99.90;;;;;;6154209;23;20005;-78
2022/02/15 05:19:12;;;;;;;61.70;37.05;;;5.70;99.90;;;;;;6128313;23;20020;-78
2022/02/15 05:21:38;;;;;;;63.20;38.28;;;5.70;99.90;;;;;;6153946;23;20013;-78
2022/02/15 05:24:05;;;;;;;60.65;37.30;;;5.70;99.90;;;;;;6128045;23;20108;-78
2022/02/15 05:26:31;;;;;;;58.78;36.15;;;5.70;99.90;;;;;;6154303;23;20312;-78
2022/02/15 05:28:57;;;;;;;62.38;37.30;;;5.70;99.90;;;;;;6154111;23;20226;-78
2022/02/15 05:31:23;;;;;;;61.40;37.78;;;5.70;99.90;;;;;;6153849;23;20059;-78
2022/02/15 05:33:48;;;;;;;62.13;36.17;;;5.70;99.90;;;;;;6154149;23;20005;-78
2022/02/15 05:36:15;;;;;;;63.97;38.40;;;5.70;99.90;;;;;;6153724;23;20389;-78
2022/02/15 05:38:42;;;;;;;57.05;36.78;;;5.70;99.90;;;;;;6128155;23;20009;-78
2022/02/15 05:41:08;;;;;;;63.83;38.60;;;5.70;99.90;;;;;;6153779;23;20001;-79
2022/02/15 05:43:34;;;;;;;56.95;38.17;;;5.70;99.90;;;;;;6162033;23;20009;-79
2022/02/15 05:46:00;;;;;;;62.25;37.40;;;5.70;99.90;;;;;;6182856;23;20005;-79
2022/02/15 05:48:29;;;;;;;57.47;36.03;;;5.60;99.90;;;;;;6182621;23;20001;-79
2022/02/15 05:50:58;;;;;;;57.97;37.35;;;5.60;99.90;;;;;;6182108;23;20001;-79
2022/02/15 05:53:27;;;;;;;62.97;38.00;;;5.60;99.90;;;;;;6182542;23;20005;-79
2022/02/15 05:55:55;;;;;;;55.35;36.10;;;5.60;99.90;;;;;;6182487;23;20011;-79
2022/02/15 05:58:22;;;;;;;60.60;36.22;;;5.60;99.90;;;;;;6156842;23;20016;-79
2022/02/15 06:00:48;;;;;;;58.58;35.40;;;5.60;99.90;;;;;;6183562;23;20338;-79
2022/02/15 06:05:59;;;;;;;48.92;30.80;;;5.70;99.90;;;;;;6183861;23;20143;-79
2022/02/15 06:08:25;;;;;;;55.38;34.88;;;5.70;99.90;;;;;;6183536;23;20024;-79
2022/02/15 06:10:51;;;;;;;58.53;34.95;;;5.70;99.90;;;;;;6183689;23;20029;-79
2022/02/15 06:13:18;;;;;;;55.80;33.95;;;5.70;99.90;;;;;;6157066;23;20386;-80
2022/02/15 06:15:44;;;;;;;55.28;34.08;;;5.70;99.90;;;;;;6157295;23;20005;-79
2022/02/15 06:18:11;;;;;;;52.15;33.75;;;5.80;99.90;;;;;;6157323;23;20066;-80
2022/02/15 06:20:36;;;;;;;55.97;34.30;;;5.70;99.90;;;;;;6183485;23;20016;-79
2022/02/15 06:23:03;;;;;;;60.00;35.55;;;5.80;99.90;;;;;;6156538;23;20447;-78
2022/02/15 06:25:28;;;;;;;63.40;37.45;;;5.80;99.90;;;;;;6183428;23;20005;-79
2022/02/15 06:27:54;;;;;;;62.17;37.20;;;5.70;99.90;;;;;;6156941;23;20136;-78
2022/02/15 06:30:20;;;;;;;58.03;36.42;;;5.70;99.90;;;;;;6157001;23;20016;-78
2022/02/15 06:32:46;;;;;;;58.72;38.22;;;5.70;99.90;;;;;;6183504;23;20376;-79
2022/02/15 06:35:12;;;;;;;65.05;40.30;;;5.70;99.90;;;;;;6183376;23;20005;-78
2022/02/15 06:37:45;;;;;;;64.18;38.38;;;5.60;99.90;;;;;;6182668;23;20055;-78
2022/02/15 06:40:15;;;;;;;62.35;36.88;;;5.60;99.90;;;;;;6154241;23;20056;-78
2022/02/15 06:42:42;;;;;;;60.50;39.00;;;5.60;99.90;;;;;;6152580;23;20056;-78
2022/02/15 06:45:08;;;;;;;67.22;41.22;;;5.60;99.90;;;;;;6179089;23;20078;-78
2022/02/15 06:47:34;;;;;;;64.57;40.50;;;5.60;99.90;;;;;;6154002;23;20226;-79
2022/02/15 06:50:00;;;;;;;62.58;39.95;;;5.50;99.90;;;;;;6157469;23;20017;-78
2022/02/15 06:52:27;;;;;;;64.05;39.35;;;5.50;99.90;;;;;;6183780;23;20001;-78
2022/02/15 06:54:53;;;;;;;68.80;40.80;;;5.50;99.90;;;;;;6158764;23;20013;-78
2022/02/15 06:57:19;;;;;;;66.60;39.67;;;5.50;99.90;;;;;;6158717;23;20063;-78
2022/02/15 06:59:45;;;;;;;67.50;41.95;;;5.50;99.90;;;;;;6158828;23;20013;-78
2022/02/15 07:02:11;;;;;;;69.38;40.53;;;5.50;99.90;;;;;;6158114;23;20532;-79
2022/02/15 07:04:37;;;;;;;64.28;39.88;;;5.50;99.90;;;;;;6186808;23;20056;-79
2022/02/15 07:07:03;;;;;;;64.20;39.33;;;5.60;99.90;;;;;;6160433;23;20139;-78
2022/02/15 07:09:29;;;;;;;64.10;39.13;;;5.60;99.90;;;;;;6160319;23;20009;-79
2022/02/15 07:11:55;;;;;;;63.67;39.60;;;5.60;99.90;;;;;;6186580;23;20001;-79
2022/02/15 07:14:20;;;;;;;59.10;36.80;;;5.60;99.90;;;;;;6160270;23;20068;-78
2022/02/15 07:16:46;;;;;;;58.90;37.53;;;5.60;99.90;;;;;;6186797;23;20012;-79
2022/02/15 07:19:13;;;;;;;62.13;37.83;;;5.70;99.90;;;;;;6160269;23;20033;-79
2022/02/15 07:21:39;;;;;;;60.20;36.95;;;5.70;99.90;;;;;;6160147;23;20345;-79
2022/02/15 07:24:05;;;;;;;61.60;36.63;;;5.70;99.90;;;;;;6160305;23;20437;-78
2022/02/15 07:26:31;;;;;;;62.85;36.30;;;5.70;99.90;;;;;;6160299;23;20079;-78
2022/02/15 07:28:57;;;;;;;60.35;36.15;;;5.60;99.90;;;;;;6186726;23;20024;-79
2022/02/15 07:31:23;;;;;;;64.22;36.95;;;5.70;99.90;;;;;;6159953;23;20009;-79
2022/02/15 07:33:50;;;;;;;59.10;35.75;;;5.70;99.90;;;;;;6160265;23;20090;-79
2022/02/15 07:36:16;;;;;;;55.47;34.60;;;5.70;99.90;;;;;;6160128;23;20012;-78
2022/02/15 07:38:42;;;;;;;58.13;34.47;;;5.70;99.90;;;;;;6160174;23;20442;-78
2022/02/15 07:41:08;;;;;;;61.70;33.72;;;5.70;99.90;;;;;;6159874;23;20446;-79
2022/02/15 07:43:34;;;;;;;52.08;30.70;;;5.70;99.90;;;;;;6159777;23;20024;-78
2022/02/15 07:46:00;;;;;;;49.28;28.77;;;5.70;99.90;;;;;;6160173;23;20006;-79
2022/02/15 07:48:26;;;;;;;37.33;22.65;;;5.70;99.90;;;;;;6160056;23;20001;-79
2022/02/15 07:50:52;;;;;;;35.88;22.65;;;5.60;99.90;;;;;;6186474;23;20001;-78
2022/02/15 07:53:17;;;;;;;33.00;20.25;;;5.60;99.90;;;;;;6160055;23;20009;-78
2022/02/15 07:55:43;;;;;;;31.40;20.35;;;5.50;99.90;;;;;;6159974;23;20008;-78
2022/02/15 07:58:09;;;;;;;34.13;22.58;;;5.50;99.90;;;;;;6186546;23;20433;-78
2022/02/15 08:00:35;;;;;;;37.28;23.23;;;5.50;99.90;;;;;;6185554;23;20385;-79
2022/02/15 08:03:01;;;;;;;35.85;22.65;;;5.50;99.90;;;;;;6186138;23;19997;-79
2022/02/15 08:05:28;;;;;;;39.20;22.85;;;5.60;99.90;;;;;;6159192;23;20009;-79
2022/02/15 08:07:55;;;;;;;38.60;22.42;;;5.50;99.90;;;;;;6185605;23;19997;-79
2022/02/15 08:10:22;;;;;;;46.65;27.60;;;5.60;99.90;;;;;;6184811;23;20012;-79
2022/02/15 08:12:55;;;;;;;46.45;25.85;;;5.60;99.90;;;;;;6158669;23;20005;-79
2022/02/15 08:15:28;;;;;;;44.10;25.95;;;5.60;99.90;;;;;;6158581;23;20005;-79
2022/02/15 08:17:54;;;;;;;35.15;24.30;;;5.60;99.90;;;;;;6158756;23;20012;-79
2022/02/15 08:20:21;;;;;;;39.75;24.65;;;5.70;99.90;;;;;;6158356;23;20024;-79
2022/02/15 08:22:46;;;;;;;33.75;23.23;;;5.70;99.90;;;;;;6158791;23;20005;-79
2022/02/15 08:25:12;;;;;;;35.75;23.88;;;5.70;99.90;;;;;;6184975;23;20497;-79
2022/02/15 08:27:38;;;;;;;38.00;25.33;;;5.70;99.90;;;;;;6158684;23;20145;-79
2022/02/15 08:30:05;;;;;;;32.00;22.33;;;5.70;99.90;;;;;;6158527;23;20037;-79
2022/02/15 08:32:31;;;;;;;33.10;20.50;;;5.70;99.90;;;;;;6158428;23;20016;-79
2022/02/15 08:34:57;;;;;;;30.65;20.58;;;5.70;99.90;;;;;;6184997;23;20013;-79
2022/02/15 08:37:22;;;;;;;29.60;19.80;;;5.70;99.90;;;;;;6185028;23;20051;-79
2022/02/15 08:39:48;;;;;;;28.05;19.70;;;5.70;99.90;;;;;;6185737;23;20005;-79
2022/02/15 08:42:14;;;;;;;31.48;20.65;;;5.70;99.90;;;;;;6185431;23;20002;-79
2022/02/15 08:44:40;;;;;;;30.33;20.05;;;5.80;99.90;;;;;;6159228;23;20059;-79
2022/02/15 08:47:06;;;;;;;29.85;19.42;;;5.80;99.90;;;;;;6159274;23;20059;-79
2022/02/15 08:49:36;;;;;;;30.40;19.90;;;5.80;99.90;;;;;;6159073;23;20346;-79
2022/02/15 08:52:03;;;;;;;31.80;20.50;;;5.80;99.90;;;;;;6158783;23;20009;-79
2022/02/15 08:54:29;;;;;;;32.17;20.95;;;5.90;99.90;;;;;;6159173;23;20005;-79
2022/02/15 08:56:55;;;;;;;36.28;21.25;;;5.90;99.90;;;;;;6185703;23;20056;-79
2022/02/15 08:59:21;;;;;;;36.08;20.60;;;5.90;99.90;;;;;;6158481;23;20080;-79
2022/02/15 09:01:50;;;;;;;33.13;21.35;;;5.90;99.90;;;;;;6157888;23;20441;-79
2022/02/15 09:04:16;;;;;;;34.17;21.17;;;5.90;99.90;;;;;;6158097;23;20005;-79
2022/02/15 09:06:42;;;;;;;36.20;22.17;;;5.90;99.90;;;;;;6184650;23;20435;-79
2022/02/15 09:09:13;;;;;;;35.28;21.33;;;5.90;99.90;;;;;;6158246;23;20005;-79
2022/02/15 09:11:40;;;;;;;33.97;23.20;;;5.90;99.90;;;;;;6184252;23;20009;-78
2022/02/15 09:14:05;;;;;;;38.63;24.70;;;5.90;99.90;;;;;;6184308;23;20001;-79
2022/02/15 09:16:31;;;;;;;34.92;23.25;;;5.90;99.90;;;;;;6184169;23;20161;-78
2022/02/15 09:19:01;;;;;;;39.60;25.35;;;5.90;99.90;;;;;;6157736;23;20005;-78
2022/02/15 09:21:27;;;;;;;38.25;24.42;;;5.90;99.90;;;;;;6158254;23;20602;-78
2022/02/15 09:23:53;;;;;;;38.63;25.10;;;5.90;99.90;;;;;;6158913;23;20001;-78
2022/02/15 09:26:19;;;;;;;38.42;24.17;;;5.90;99.90;;;;;;6185331;23;20001;-79
2022/02/15 09:28:44;;;;;;;34.45;23.38;;;5.90;99.90;;;;;;6184621;23;20051;-78
2022/02/15 09:31:10;;;;;;;39.28;25.50;;;5.90;99.90;;;;;;6184158;23;20028;-79
2022/02/15 09:33:36;;;;;;;39.03;26.27;;;6.00;99.90;;;;;;6157165;23;20032;-79
2022/02/15 09:36:02;;;;;;;39.88;25.27;;;6.00;99.90;;;;;;6154838;23;20453;-79
2022/02/15 09:38:28;;;;;;;37.78;24.67;;;6.00;99.90;;;;;;6180587;23;20008;-79
2022/02/15 09:40:53;;;;;;;35.35;23.20;;;6.10;99.90;;;;;;6154478;23;20012;-79
2022/02/15 09:43:19;;;;;;;36.95;24.63;;;6.00;99.90;;;;;;6179750;23;20005;-79
2022/02/15 09:45:47;;;;;;;35.38;23.50;;;6.00;99.90;;;;;;6153361;23;20001;-79
2022/02/15 09:48:18;;;;;;;36.10;23.27;;;6.10;99.90;;;;;;6181686;23;20005;-79
2022/02/15 09:50:45;;;;;;;30.75;21.27;;;6.10;99.90;;;;;;6154732;23;20552;-79
2022/02/15 09:53:11;;;;;;;31.48;22.13;;;6.00;99.90;;;;;;6181633;23;20025;-79
2022/02/15 09:55:36;;;;;;;35.10;21.83;;;6.10;99.90;;;;;;6156712;23;20016;-79
2022/02/15 09:58:03;;;;;;;32.42;21.25;;;6.00;99.90;;;;;;6184124;23;20012;-81
2022/02/15 10:00:29;;;;;;;32.83;21.10;;;6.00;99.90;;;;;;6184795;23;20283;-80
2022/02/15 10:02:57;;;;;;;29.92;20.75;;;6.00;99.90;;;;;;6184264;23;20008;-80
2022/02/15 10:05:23;;;;;;;30.45;19.45;;;6.00;99.90;;;;;;6157833;23;20005;-80
2022/02/15 10:07:57;;;;;;;25.00;18.15;;;5.90;99.90;;;;;;6184429;23;20004;-80
2022/02/15 10:10:34;;;;;;;26.58;18.65;;;5.90;99.90;;;;;;6183919;23;20461;-79
2022/02/15 10:13:04;;;;;;;31.42;21.02;;;5.90;99.90;;;;;;6183955;23;20005;-80
2022/02/15 10:15:35;;;;;;;30.40;19.40;;;5.90;99.90;;;;;;6184021;23;20005;-80
2022/02/15 10:18:10;;;;;;;33.30;20.67;;;5.90;99.90;;;;;;6182057;23;20032;-80
2022/02/15 10:20:37;;;;;;;28.50;19.30;;;5.90;99.90;;;;;;6152756;23;20508;-80
2022/02/15 10:23:16;;;;;;;25.52;17.58;;;5.90;99.90;;;;;;6180443;23;20001;-78
2022/02/15 10:25:42;;;;;;;23.23;17.05;;;5.90;99.90;;;;;;6155534;23;20008;-80
2022/02/15 10:28:22;;;;;;;26.88;18.23;;;5.90;99.90;;;;;;6182777;23;20005;-79
2022/02/15 10:30:57;;;;;;;33.10;21.02;;;5.90;99.90;;;;;;6182063;23;20001;-80
2022/02/15 10:33:35;;;;;;;31.05;20.58;;;5.90;99.90;;;;;;6182231;23;20717;-79
2022/02/15 10:36:04;;;;;;;30.92;20.05;;;6.00;99.90;;;;;;6182166;23;20005;-80
2022/02/15 10:38:34;;;;;;;28.65;19.67;;;6.00;99.90;;;;;;6182893;23;20315;-79
2022/02/15 10:41:07;;;;;;;30.42;20.45;;;6.00;99.90;;;;;;6155852;23;20001;-81
2022/02/15 10:43:47;;;;;;;30.30;18.75;;;6.10;99.90;;;;;;6182663;23;20088;-81
2022/02/15 10:46:19;;;;;;;40.42;23.83;;;6.10;99.90;;;;;;6157390;23;20109;-81
2022/02/15 10:48:46;;;;;;;41.55;24.33;;;6.10;99.90;;;;;;6157532;23;20009;-83
2022/02/15 10:51:13;;;;;;;35.28;23.00;;;6.10;99.90;;;;;;6155957;23;20005;-81
2022/02/15 10:53:40;;;;;;;35.63;22.95;;;6.10;99.90;;;;;;6157475;23;20067;-80
2022/02/15 10:56:06;;;;;;;33.42;22.17;;;6.10;99.90;;;;;;6156882;23;20008;-80
2022/02/15 10:58:33;;;;;;;32.00;20.80;;;6.10;99.90;;;;;;6181179;23;20009;-80
2022/02/15 11:01:04;;;;;;;29.33;20.73;;;6.10;99.90;;;;;;6182811;23;20001;-78
2022/02/15 11:03:33;;;;;;;25.92;19.88;;;6.10;99.90;;;;;;6155825;23;20044;-80
2022/02/15 11:05:59;;;;;;;29.73;20.42;;;6.10;99.90;;;;;;6182008;23;20000;-80
2022/02/15 11:08:26;;;;;;;30.58;19.15;;;6.10;99.90;;;;;;6182655;23;20072;-78
2022/02/15 11:10:58;;;;;;;29.63;20.48;;;6.10;99.90;;;;;;6182941;23;20009;-80
2022/02/15 11:13:24;;;;;;;31.38;21.25;;;6.20;99.90;;;;;;6182866;23;20005;-80
2022/02/15 11:15:53;;;;;;;33.88;21.45;;;6.10;99.90;;;;;;6157396;23;20009;-80
2022/02/15 11:18:34;;;;;;;31.08;20.20;;;6.20;99.90;;;;;;6157005;23;20015;-81
2022/02/15 11:21:03;;;;;;;30.77;19.70;;;6.10;99.90;;;;;;6185061;23;20489;-80
2022/02/15 11:23:40;;;;;;;28.27;19.13;;;6.00;99.90;;;;;;6186273;23;20003;-83
2022/02/15 11:26:13;;;;;;;31.05;20.10;;;6.10;99.90;;;;;;6159511;23;20524;-81
2022/02/15 11:28:58;;;;;;;27.67;18.75;;;6.10;99.90;;;;;;6158273;23;20451;-81
2022/02/15 11:31:29;;;;;;;28.40;18.95;;;6.10;99.90;;;;;;6155935;23;20004;-81
2022/02/15 11:33:56;;;;;;;27.08;19.85;;;6.10;99.90;;;;;;6157632;23;20079;-80
2022/02/15 11:36:23;;;;;;;28.00;20.05;;;6.10;99.90;;;;;;6158201;23;20466;-80
2022/02/15 11:38:56;;;;;;;28.98;20.20;;;6.00;99.90;;;;;;6158274;23;20009;-80
2022/02/15 11:41:24;;;;;;;29.27;21.50;;;6.00;99.90;;;;;;6157688;23;20059;-80
2022/02/15 11:44:01;;;;;;;31.58;20.80;;;6.00;99.90;;;;;;6145188;23;20116;-78
2022/02/15 11:46:35;;;;;;;31.05;20.38;;;6.00;99.90;;;;;;6155477;23;20012;-76
2022/02/15 11:49:15;;;;;;;25.55;18.90;;;6.00;99.90;;;;;;6155990;23;20002;-77
2022/02/15 11:51:43;;;;;;;25.02;18.35;;;6.00;99.90;;;;;;6152653;23;20001;-78
2022/02/15 11:54:19;;;;;;;26.25;18.98;;;6.00;99.90;;;;;;6153223;23;20422;-77
2022/02/15 11:56:50;;;;;;;21.63;16.92;;;6.00;99.90;;;;;;6153425;23;20013;-77
2022/02/15 11:59:21;;;;;;;21.85;16.70;;;6.00;99.90;;;;;;6127369;23;20458;-77
2022/02/15 12:02:00;;;;;;;18.90;15.95;;;6.00;99.90;;;;;;6125909;23;20028;-78
2022/02/15 12:04:27;;;;;;;22.13;17.58;;;5.90;99.90;;;;;;6152212;23;20485;-80
2022/02/15 12:06:54;;;;;;;18.92;15.93;;;6.00;99.90;;;;;;6152216;23;20081;-79
2022/02/15 12:09:31;;;;;;;20.45;16.42;;;6.00;99.90;;;;;;6127287;23;19998;-80
2022/02/15 12:11:58;;;;;;;17.63;14.23;;;6.10;99.90;;;;;;6151942;23;20429;-82
2022/02/15 12:14:25;;;;;;;19.42;15.65;;;6.10;99.90;;;;;;6151588;23;20005;-83
2022/02/15 12:16:52;;;;;;;16.48;14.00;;;6.10;99.90;;;;;;6153270;23;20076;-80
2022/02/15 12:19:31;;;;;;;20.70;14.52;;;6.10;99.90;;;;;;6127353;23;20006;-80
2022/02/15 12:22:02;;;;;;;19.52;14.95;;;6.10;99.90;;;;;;6153178;23;20002;-80
2022/02/15 12:24:32;;;;;;;22.00;16.42;;;6.10;99.90;;;;;;6126715;23;20337;-77
2022/02/15 12:27:07;;;;;;;23.27;17.85;;;6.10;99.90;;;;;;6126476;23;20426;-78
2022/02/15 12:29:34;;;;;;;18.65;15.77;;;6.10;99.90;;;;;;6126344;23;20088;-78
2022/02/15 12:32:05;;;;;;;21.05;14.98;;;6.20;99.90;;;;;;6127185;23;20044;-78
2022/02/15 12:34:32;;;;;;;18.75;14.98;;;6.20;99.90;;;;;;6152648;23;20076;-78
2022/02/15 12:36:59;;;;;;;15.60;13.18;;;6.20;99.90;;;;;;6126410;23;20013;-78
2022/02/15 12:39:34;;;;;;;19.80;14.88;;;6.30;99.90;;;;;;6126948;23;20084;-78
2022/02/15 12:41:59;;;;;;;17.25;14.00;;;6.30;99.90;;;;;;6152638;23;20084;-78
2022/02/15 12:44:25;;;;;;;18.63;13.85;;;6.30;99.90;;;;;;6129860;23;20056;-78
2022/02/15 12:46:51;;;;;;;17.48;14.18;;;6.30;99.90;;;;;;6129035;23;20020;-78